EZY747V EGKK-EGPH
Flight info
| Callsign | EZY747V |
|---|---|
| Flight time | 1h 2m |
| Altitude | 34000 |
| Route | LAM L10 BPK UN601 RIBEL DCT INPIP |
| Aircraft | A319/M-SDE3FGHIRWY/LB1 |
Departure
| Time | 2026-05-07 15:29 |
|---|---|
| Airport | London Gatwick Airport (EGKK) |
Arrival
| Time | 2026-05-07 16:32 |
|---|---|
| Airport | Edinburgh Airport (EGPH) |
| Time | Latitude | Longitude | Altitude | Speed | Heading |
|---|---|---|---|---|---|
| 2026-05-07 15:09 | 51.15635 | -0.17847 | 204 ft | 0 kts | 167° |
| 2026-05-07 15:18 | 51.15653 | -0.17853 | 216 ft | 4 kts | 172° |
| 2026-05-07 15:18 | 51.15680 | -0.17857 | 214 ft | 4 kts | 184° |
| 2026-05-07 15:18 | 51.15706 | -0.17849 | 214 ft | 4 kts | 213° |
| 2026-05-07 15:18 | 51.15717 | -0.17828 | 210 ft | 0 kts | 258° |
| 2026-05-07 15:22 | 51.15717 | -0.17832 | 211 ft | 2 kts | 258° |
| 2026-05-07 15:22 | 51.15712 | -0.17865 | 213 ft | 1 kts | 256° |
| 2026-05-07 15:22 | 51.15706 | -0.17906 | 207 ft | 7 kts | 258° |
| 2026-05-07 15:22 | 51.15691 | -0.18016 | 214 ft | 13 kts | 257° |
| 2026-05-07 15:23 | 51.15666 | -0.18190 | 204 ft | 18 kts | 258° |
| 2026-05-07 15:23 | 51.15640 | -0.18388 | 204 ft | 18 kts | 258° |
| 2026-05-07 15:23 | 51.15612 | -0.18586 | 210 ft | 18 kts | 257° |
| 2026-05-07 15:23 | 51.15591 | -0.18741 | 204 ft | 6 kts | 257° |
| 2026-05-07 15:24 | 51.15565 | -0.18811 | 206 ft | 10 kts | 217° |
| 2026-05-07 15:24 | 51.15486 | -0.18805 | 204 ft | 14 kts | 168° |
| 2026-05-07 15:24 | 51.15375 | -0.18766 | 205 ft | 19 kts | 167° |
| 2026-05-07 15:24 | 51.15238 | -0.18718 | 207 ft | 15 kts | 168° |
| 2026-05-07 15:25 | 51.15138 | -0.18723 | 210 ft | 16 kts | 223° |
| 2026-05-07 15:25 | 51.15107 | -0.18901 | 207 ft | 18 kts | 258° |
| 2026-05-07 15:25 | 51.15080 | -0.19097 | 206 ft | 19 kts | 258° |
| 2026-05-07 15:25 | 51.15051 | -0.19308 | 204 ft | 20 kts | 258° |
| 2026-05-07 15:26 | 51.15021 | -0.19531 | 204 ft | 21 kts | 258° |
| 2026-05-07 15:26 | 51.14988 | -0.19766 | 204 ft | 22 kts | 258° |
| 2026-05-07 15:26 | 51.14953 | -0.20015 | 209 ft | 24 kts | 257° |
| 2026-05-07 15:26 | 51.14917 | -0.20275 | 203 ft | 25 kts | 257° |
| 2026-05-07 15:27 | 51.14879 | -0.20552 | 203 ft | 26 kts | 258° |
| 2026-05-07 15:27 | 51.14841 | -0.20831 | 214 ft | 25 kts | 257° |
| 2026-05-07 15:27 | 51.14807 | -0.21081 | 210 ft | 18 kts | 257° |
| 2026-05-07 15:27 | 51.14770 | -0.21279 | 204 ft | 19 kts | 259° |
| 2026-05-07 15:28 | 51.14716 | -0.21402 | 204 ft | 14 kts | 185° |
| 2026-05-07 15:28 | 51.14635 | -0.21329 | 208 ft | 13 kts | 148° |
| 2026-05-07 15:28 | 51.14549 | -0.21276 | 205 ft | 14 kts | 145° |
| 2026-05-07 15:28 | 51.14525 | -0.21134 | 205 ft | 14 kts | 77° |
| 2026-05-07 15:29 | 51.14554 | -0.20921 | 204 ft | 44 kts | 78° |
| 2026-05-07 15:29 | 51.14675 | -0.20033 | 204 ft | 118 kts | 78° |
| 2026-05-07 15:29 | 51.14881 | -0.18441 | 307 ft | 165 kts | 80° |
| 2026-05-07 15:29 | 51.15139 | -0.16608 | 982 ft | 172 kts | 78° |
| 2026-05-07 15:30 | 51.15434 | -0.14754 | 1635 ft | 178 kts | 78° |
| 2026-05-07 15:30 | 51.15748 | -0.12744 | 1979 ft | 197 kts | 78° |
| 2026-05-07 15:30 | 51.16060 | -0.10534 | 2271 ft | 220 kts | 80° |
| 2026-05-07 15:30 | 51.16391 | -0.08013 | 2608 ft | 244 kts | 77° |
| 2026-05-07 15:31 | 51.17195 | -0.05498 | 3284 ft | 262 kts | 53° |
| 2026-05-07 15:31 | 51.18306 | -0.03194 | 4315 ft | 265 kts | 52° |
| 2026-05-07 15:31 | 51.19439 | -0.00847 | 4779 ft | 266 kts | 52° |
| 2026-05-07 15:31 | 51.20566 | 0.01495 | 4868 ft | 266 kts | 52° |
| 2026-05-07 15:32 | 51.21691 | 0.03833 | 4896 ft | 266 kts | 52° |
| 2026-05-07 15:32 | 51.22820 | 0.06181 | 4890 ft | 266 kts | 52° |
| 2026-05-07 15:32 | 51.23945 | 0.08523 | 4883 ft | 266 kts | 52° |
| 2026-05-07 15:32 | 51.24898 | 0.11052 | 4876 ft | 266 kts | 68° |
| 2026-05-07 15:33 | 51.25369 | 0.13894 | 4866 ft | 266 kts | 79° |
| 2026-05-07 15:33 | 51.25707 | 0.16797 | 4853 ft | 266 kts | 79° |
| 2026-05-07 15:33 | 51.26051 | 0.19701 | 4843 ft | 266 kts | 79° |
| 2026-05-07 15:33 | 51.26384 | 0.22521 | 4834 ft | 266 kts | 79° |
| 2026-05-07 15:34 | 51.26726 | 0.25414 | 4825 ft | 266 kts | 79° |
| 2026-05-07 15:34 | 51.27071 | 0.28329 | 4819 ft | 266 kts | 79° |
| 2026-05-07 15:34 | 51.27429 | 0.31185 | 4811 ft | 266 kts | 75° |
| 2026-05-07 15:34 | 51.28284 | 0.33783 | 4809 ft | 266 kts | 49° |
| 2026-05-07 15:35 | 51.29751 | 0.35559 | 4819 ft | 266 kts | 24° |
| 2026-05-07 15:35 | 51.31539 | 0.36184 | 4827 ft | 265 kts | 359° |
| 2026-05-07 15:35 | 51.33329 | 0.35568 | 5003 ft | 265 kts | 338° |
| 2026-05-07 15:35 | 51.35049 | 0.34446 | 4997 ft | 268 kts | 336° |
| 2026-05-07 15:36 | 51.36776 | 0.33315 | 5001 ft | 268 kts | 337° |
| 2026-05-07 15:36 | 51.38511 | 0.32185 | 5003 ft | 269 kts | 337° |
| 2026-05-07 15:36 | 51.40243 | 0.31056 | 4999 ft | 269 kts | 337° |
| 2026-05-07 15:36 | 51.41981 | 0.29924 | 5006 ft | 270 kts | 337° |
| 2026-05-07 15:37 | 51.43757 | 0.28774 | 5634 ft | 278 kts | 337° |
| 2026-05-07 15:37 | 51.45550 | 0.27615 | 5952 ft | 275 kts | 337° |
| 2026-05-07 15:37 | 51.47313 | 0.26475 | 6002 ft | 273 kts | 337° |
| 2026-05-07 15:37 | 51.49076 | 0.25331 | 6009 ft | 273 kts | 337° |
| 2026-05-07 15:38 | 51.50837 | 0.24181 | 6011 ft | 273 kts | 337° |
| 2026-05-07 15:38 | 51.52599 | 0.23029 | 6010 ft | 273 kts | 337° |
| 2026-05-07 15:38 | 51.54356 | 0.21882 | 6010 ft | 273 kts | 337° |
| 2026-05-07 15:38 | 51.56113 | 0.20737 | 6009 ft | 273 kts | 337° |
| 2026-05-07 15:39 | 51.57873 | 0.19590 | 6005 ft | 273 kts | 337° |
| 2026-05-07 15:39 | 51.59645 | 0.18434 | 6007 ft | 274 kts | 337° |
| 2026-05-07 15:39 | 51.61411 | 0.17279 | 6002 ft | 274 kts | 337° |
| 2026-05-07 15:39 | 51.63166 | 0.16066 | 6006 ft | 274 kts | 331° |
| 2026-05-07 15:40 | 51.64673 | 0.14357 | 6005 ft | 272 kts | 316° |
| 2026-05-07 15:40 | 51.65886 | 0.11956 | 6591 ft | 280 kts | 300° |
| 2026-05-07 15:40 | 51.66566 | 0.10208 | 7379 ft | 278 kts | 301° |
| 2026-05-07 15:40 | 51.67617 | 0.07580 | 8440 ft | 280 kts | 301° |
| 2026-05-07 15:41 | 51.68691 | 0.04932 | 9415 ft | 285 kts | 301° |
| 2026-05-07 15:41 | 51.69785 | 0.02238 | 10321 ft | 291 kts | 301° |
| 2026-05-07 15:41 | 51.71330 | -0.01596 | 10837 ft | 322 kts | 301° |
| 2026-05-07 15:41 | 51.72574 | -0.04693 | 11464 ft | 334 kts | 301° |
| 2026-05-07 15:42 | 51.73417 | -0.06795 | 11993 ft | 338 kts | 301° |
| 2026-05-07 15:42 | 51.74878 | -0.09810 | 12825 ft | 345 kts | 313° |
| 2026-05-07 15:42 | 51.76730 | -0.12322 | 13645 ft | 351 kts | 325° |
| 2026-05-07 15:42 | 51.78771 | -0.14286 | 14372 ft | 356 kts | 329° |
| 2026-05-07 15:43 | 51.80913 | -0.16304 | 15131 ft | 359 kts | 328° |
| 2026-05-07 15:43 | 51.83078 | -0.18353 | 15871 ft | 362 kts | 328° |
| 2026-05-07 15:43 | 51.85260 | -0.20431 | 16630 ft | 365 kts | 328° |
| 2026-05-07 15:43 | 51.87449 | -0.22524 | 17385 ft | 368 kts | 328° |
| 2026-05-07 15:44 | 51.89664 | -0.24645 | 18137 ft | 371 kts | 327° |
| 2026-05-07 15:44 | 51.91891 | -0.26781 | 18805 ft | 374 kts | 327° |
| 2026-05-07 15:44 | 51.94142 | -0.28939 | 19459 ft | 376 kts | 327° |
| 2026-05-07 15:44 | 51.96403 | -0.31106 | 20106 ft | 379 kts | 327° |
| 2026-05-07 15:45 | 51.98681 | -0.33295 | 20765 ft | 382 kts | 327° |
| 2026-05-07 15:45 | 52.00982 | -0.35508 | 21415 ft | 385 kts | 327° |
| 2026-05-07 15:45 | 52.03296 | -0.37737 | 22049 ft | 388 kts | 327° |
| 2026-05-07 15:45 | 52.05630 | -0.39988 | 22681 ft | 392 kts | 327° |
| 2026-05-07 15:46 | 52.10153 | -0.44348 | 23792 ft | 399 kts | 327° |
| 2026-05-07 15:46 | 52.11982 | -0.46113 | 24168 ft | 401 kts | 327° |
| 2026-05-07 15:46 | 52.14389 | -0.48439 | 24652 ft | 404 kts | 327° |
| 2026-05-07 15:47 | 52.16821 | -0.50790 | 25128 ft | 407 kts | 327° |
| 2026-05-07 15:47 | 52.19261 | -0.53159 | 25594 ft | 410 kts | 327° |
| 2026-05-07 15:47 | 52.21726 | -0.55559 | 26062 ft | 413 kts | 327° |
| 2026-05-07 15:47 | 52.24205 | -0.57973 | 26525 ft | 417 kts | 327° |
| 2026-05-07 15:48 | 52.26670 | -0.60377 | 26967 ft | 420 kts | 327° |
| 2026-05-07 15:48 | 52.29191 | -0.62837 | 27403 ft | 423 kts | 328° |
| 2026-05-07 15:48 | 52.31730 | -0.65316 | 27747 ft | 429 kts | 328° |
| 2026-05-07 15:48 | 52.34309 | -0.67835 | 28153 ft | 433 kts | 328° |
| 2026-05-07 15:49 | 52.36905 | -0.70377 | 28584 ft | 436 kts | 328° |
| 2026-05-07 15:49 | 52.39523 | -0.72945 | 29007 ft | 440 kts | 328° |
| 2026-05-07 15:49 | 52.42158 | -0.75529 | 29422 ft | 443 kts | 328° |
| 2026-05-07 15:49 | 52.44810 | -0.78137 | 29831 ft | 446 kts | 328° |
| 2026-05-07 15:50 | 52.47481 | -0.80771 | 30216 ft | 449 kts | 328° |
| 2026-05-07 15:50 | 52.50168 | -0.83429 | 30548 ft | 452 kts | 328° |
| 2026-05-07 15:50 | 52.52865 | -0.86101 | 30885 ft | 455 kts | 329° |
| 2026-05-07 15:50 | 52.55586 | -0.88795 | 31161 ft | 459 kts | 329° |
| 2026-05-07 15:51 | 52.58329 | -0.91515 | 31477 ft | 462 kts | 329° |
| 2026-05-07 15:51 | 52.61089 | -0.94252 | 31780 ft | 464 kts | 329° |
| 2026-05-07 15:51 | 52.63849 | -0.96985 | 32234 ft | 463 kts | 329° |
| 2026-05-07 15:51 | 52.66604 | -0.99721 | 32706 ft | 462 kts | 328° |
| 2026-05-07 15:52 | 52.69321 | -1.02431 | 33172 ft | 461 kts | 328° |
| 2026-05-07 15:52 | 52.72063 | -1.05168 | 33639 ft | 460 kts | 328° |
| 2026-05-07 15:52 | 52.74798 | -1.07900 | 34001 ft | 459 kts | 328° |
| 2026-05-07 15:53 | 52.80181 | -1.13292 | 34057 ft | 447 kts | 328° |
| 2026-05-07 15:53 | 52.85491 | -1.18621 | 34057 ft | 445 kts | 329° |
| 2026-05-07 15:54 | 52.90784 | -1.23950 | 34057 ft | 445 kts | 328° |
| 2026-05-07 15:54 | 52.96067 | -1.29305 | 34058 ft | 445 kts | 328° |
| 2026-05-07 15:55 | 53.01360 | -1.34674 | 34055 ft | 445 kts | 329° |
| 2026-05-07 15:55 | 53.06639 | -1.40045 | 34049 ft | 446 kts | 329° |
| 2026-05-07 15:56 | 53.11940 | -1.45441 | 34045 ft | 447 kts | 329° |
| 2026-05-07 15:56 | 53.17206 | -1.50822 | 34041 ft | 447 kts | 329° |
| 2026-05-07 15:57 | 53.22507 | -1.56266 | 34045 ft | 447 kts | 328° |
| 2026-05-07 15:57 | 53.27821 | -1.61733 | 34042 ft | 448 kts | 328° |
| 2026-05-07 15:58 | 53.33124 | -1.67199 | 34029 ft | 449 kts | 328° |
| 2026-05-07 15:58 | 53.38449 | -1.72708 | 34025 ft | 449 kts | 328° |
| 2026-05-07 15:59 | 53.43759 | -1.78222 | 34033 ft | 450 kts | 328° |
| 2026-05-07 15:59 | 53.49077 | -1.83759 | 34032 ft | 450 kts | 328° |
| 2026-05-07 16:00 | 53.54405 | -1.89311 | 34031 ft | 450 kts | 328° |
| 2026-05-07 16:00 | 53.59717 | -1.94869 | 34037 ft | 450 kts | 328° |
| 2026-05-07 16:01 | 53.65037 | -2.00453 | 34041 ft | 450 kts | 328° |
| 2026-05-07 16:01 | 53.70358 | -2.06061 | 34039 ft | 450 kts | 328° |
| 2026-05-07 16:02 | 53.75802 | -2.11290 | 34039 ft | 450 kts | 338° |
| 2026-05-07 16:02 | 53.81623 | -2.15244 | 34034 ft | 450 kts | 338° |
| 2026-05-07 16:03 | 53.87432 | -2.19216 | 34033 ft | 451 kts | 338° |
| 2026-05-07 16:03 | 53.93251 | -2.23214 | 34027 ft | 451 kts | 338° |
| 2026-05-07 16:04 | 53.99069 | -2.27209 | 34031 ft | 451 kts | 338° |
| 2026-05-07 16:04 | 54.04888 | -2.31220 | 34021 ft | 451 kts | 338° |
| 2026-05-07 16:05 | 54.10715 | -2.35240 | 34019 ft | 452 kts | 338° |
| 2026-05-07 16:05 | 54.16505 | -2.39241 | 34024 ft | 452 kts | 338° |
| 2026-05-07 16:06 | 54.22329 | -2.43289 | 34025 ft | 452 kts | 338° |
| 2026-05-07 16:06 | 54.28154 | -2.47357 | 34024 ft | 452 kts | 338° |
| 2026-05-07 16:07 | 54.34006 | -2.51461 | 34021 ft | 452 kts | 338° |
| 2026-05-07 16:07 | 54.39799 | -2.55534 | 33987 ft | 452 kts | 338° |
| 2026-05-07 16:07 | 54.42707 | -2.57583 | 33693 ft | 452 kts | 338° |
| 2026-05-07 16:08 | 54.45626 | -2.59640 | 33420 ft | 452 kts | 338° |
| 2026-05-07 16:08 | 54.48536 | -2.61688 | 33155 ft | 452 kts | 337° |
| 2026-05-07 16:08 | 54.51444 | -2.63737 | 32878 ft | 452 kts | 337° |
| 2026-05-07 16:08 | 54.54338 | -2.65784 | 32422 ft | 449 kts | 337° |
| 2026-05-07 16:09 | 54.57221 | -2.67828 | 31840 ft | 446 kts | 337° |
| 2026-05-07 16:09 | 54.60086 | -2.69864 | 31280 ft | 443 kts | 336° |
| 2026-05-07 16:09 | 54.62922 | -2.71885 | 30715 ft | 441 kts | 336° |
| 2026-05-07 16:09 | 54.65748 | -2.73901 | 30160 ft | 439 kts | 336° |
| 2026-05-07 16:10 | 54.68572 | -2.75916 | 29559 ft | 436 kts | 336° |
| 2026-05-07 16:10 | 54.71357 | -2.77903 | 29026 ft | 431 kts | 336° |
| 2026-05-07 16:10 | 54.74117 | -2.79877 | 28483 ft | 427 kts | 335° |
| 2026-05-07 16:10 | 54.76845 | -2.81833 | 27963 ft | 423 kts | 335° |
| 2026-05-07 16:11 | 54.79550 | -2.83773 | 27463 ft | 419 kts | 335° |
| 2026-05-07 16:11 | 54.82223 | -2.85693 | 26952 ft | 415 kts | 335° |
| 2026-05-07 16:11 | 54.84854 | -2.87587 | 26486 ft | 412 kts | 335° |
| 2026-05-07 16:11 | 54.87490 | -2.89485 | 26011 ft | 409 kts | 335° |
| 2026-05-07 16:12 | 54.90115 | -2.91375 | 25443 ft | 409 kts | 335° |
| 2026-05-07 16:12 | 54.92742 | -2.93274 | 24870 ft | 409 kts | 335° |
| 2026-05-07 16:12 | 54.95367 | -2.95175 | 24298 ft | 409 kts | 335° |
| 2026-05-07 16:12 | 54.98007 | -2.97091 | 23735 ft | 410 kts | 335° |
| 2026-05-07 16:13 | 55.00641 | -2.99000 | 23086 ft | 410 kts | 335° |
| 2026-05-07 16:13 | 55.03262 | -3.00902 | 22517 ft | 408 kts | 335° |
| 2026-05-07 16:13 | 55.05886 | -3.02812 | 21954 ft | 407 kts | 335° |
| 2026-05-07 16:13 | 55.08478 | -3.04698 | 21461 ft | 403 kts | 335° |
| 2026-05-07 16:14 | 55.11052 | -3.06573 | 20811 ft | 396 kts | 335° |
| 2026-05-07 16:14 | 55.13564 | -3.08403 | 20271 ft | 384 kts | 334° |
| 2026-05-07 16:14 | 55.15992 | -3.10174 | 19695 ft | 375 kts | 334° |
| 2026-05-07 16:14 | 55.18384 | -3.11929 | 18947 ft | 372 kts | 334° |
| 2026-05-07 16:15 | 55.20760 | -3.13674 | 18236 ft | 368 kts | 334° |
| 2026-05-07 16:15 | 55.23107 | -3.15402 | 17484 ft | 363 kts | 334° |
| 2026-05-07 16:15 | 55.25420 | -3.17114 | 16789 ft | 358 kts | 334° |
| 2026-05-07 16:15 | 55.27693 | -3.18788 | 16302 ft | 347 kts | 335° |
| 2026-05-07 16:16 | 55.29983 | -3.19888 | 16003 ft | 337 kts | 349° |
| 2026-05-07 16:16 | 55.32319 | -3.20049 | 15721 ft | 336 kts | 2° |
| 2026-05-07 16:16 | 55.34662 | -3.19684 | 15221 ft | 338 kts | 3° |
| 2026-05-07 16:16 | 55.36982 | -3.19313 | 14636 ft | 335 kts | 2° |
| 2026-05-07 16:17 | 55.39288 | -3.18949 | 14081 ft | 331 kts | 2° |
| 2026-05-07 16:17 | 55.41567 | -3.18591 | 13548 ft | 327 kts | 2° |
| 2026-05-07 16:17 | 55.43827 | -3.18239 | 12868 ft | 325 kts | 2° |
| 2026-05-07 16:17 | 55.46045 | -3.17891 | 12317 ft | 321 kts | 2° |
| 2026-05-07 16:18 | 55.48255 | -3.17546 | 11768 ft | 317 kts | 2° |
| 2026-05-07 16:18 | 55.50440 | -3.17207 | 11231 ft | 313 kts | 2° |
| 2026-05-07 16:18 | 55.52604 | -3.16870 | 10700 ft | 311 kts | 2° |
| 2026-05-07 16:18 | 55.54762 | -3.16534 | 10185 ft | 313 kts | 2° |
| 2026-05-07 16:19 | 55.56911 | -3.16194 | 9628 ft | 308 kts | 2° |
| 2026-05-07 16:19 | 55.59034 | -3.15855 | 9071 ft | 303 kts | 2° |
| 2026-05-07 16:19 | 55.61122 | -3.15521 | 8551 ft | 300 kts | 2° |
| 2026-05-07 16:19 | 55.63199 | -3.15193 | 8032 ft | 298 kts | 2° |
| 2026-05-07 16:20 | 55.65260 | -3.14869 | 7529 ft | 296 kts | 2° |
| 2026-05-07 16:20 | 55.67303 | -3.14546 | 7046 ft | 291 kts | 2° |
| 2026-05-07 16:20 | 55.69264 | -3.14230 | 6868 ft | 273 kts | 2° |
| 2026-05-07 16:20 | 55.71141 | -3.13929 | 7005 ft | 272 kts | 2° |
| 2026-05-07 16:21 | 55.73032 | -3.13589 | 6855 ft | 274 kts | 4° |
| 2026-05-07 16:21 | 55.74921 | -3.13146 | 6615 ft | 273 kts | 6° |
| 2026-05-07 16:21 | 55.76788 | -3.12660 | 6373 ft | 269 kts | 6° |
| 2026-05-07 16:21 | 55.78635 | -3.12164 | 6125 ft | 271 kts | 7° |
| 2026-05-07 16:22 | 55.80533 | -3.11345 | 5876 ft | 284 kts | 14° |
| 2026-05-07 16:22 | 55.82407 | -3.10393 | 5612 ft | 276 kts | 14° |
| 2026-05-07 16:22 | 55.84230 | -3.09455 | 5349 ft | 269 kts | 15° |
| 2026-05-07 16:22 | 55.86012 | -3.08541 | 5088 ft | 265 kts | 15° |
| 2026-05-07 16:23 | 55.87785 | -3.07646 | 4836 ft | 264 kts | 14° |
| 2026-05-07 16:23 | 55.89551 | -3.06750 | 4577 ft | 263 kts | 14° |
| 2026-05-07 16:23 | 55.91297 | -3.05864 | 4314 ft | 257 kts | 15° |
| 2026-05-07 16:23 | 55.92429 | -3.05294 | 4141 ft | 254 kts | 15° |
| 2026-05-07 16:24 | 55.94654 | -3.04169 | 3803 ft | 247 kts | 14° |
| 2026-05-07 16:24 | 55.95766 | -3.03602 | 3623 ft | 245 kts | 15° |
| 2026-05-07 16:24 | 55.97387 | -3.02777 | 3371 ft | 241 kts | 14° |
| 2026-05-07 16:24 | 55.98988 | -3.01945 | 3118 ft | 238 kts | 15° |
| 2026-05-07 16:25 | 56.01068 | -3.00947 | 2995 ft | 230 kts | 4° |
| 2026-05-07 16:25 | 56.02125 | -3.01080 | 3006 ft | 224 kts | 340° |
| 2026-05-07 16:25 | 56.03468 | -3.02313 | 3011 ft | 214 kts | 313° |
| 2026-05-07 16:25 | 56.04325 | -3.04280 | 3027 ft | 188 kts | 289° |
| 2026-05-07 16:26 | 56.04655 | -3.06372 | 3009 ft | 165 kts | 268° |
| 2026-05-07 16:26 | 56.04573 | -3.08276 | 2998 ft | 143 kts | 249° |
| 2026-05-07 16:26 | 56.04215 | -3.09840 | 2996 ft | 131 kts | 234° |
| 2026-05-07 16:26 | 56.03754 | -3.11223 | 3004 ft | 132 kts | 235° |
| 2026-05-07 16:27 | 56.03249 | -3.12735 | 2993 ft | 146 kts | 236° |
| 2026-05-07 16:27 | 56.02727 | -3.14300 | 2858 ft | 146 kts | 235° |
| 2026-05-07 16:27 | 56.02225 | -3.15803 | 2704 ft | 132 kts | 235° |
| 2026-05-07 16:27 | 56.01774 | -3.17151 | 2538 ft | 125 kts | 234° |
| 2026-05-07 16:28 | 56.01336 | -3.18453 | 2379 ft | 120 kts | 234° |
| 2026-05-07 16:28 | 56.00910 | -3.19723 | 2219 ft | 119 kts | 234° |
| 2026-05-07 16:28 | 56.00483 | -3.20991 | 2057 ft | 119 kts | 234° |
| 2026-05-07 16:28 | 56.00058 | -3.22253 | 1897 ft | 119 kts | 233° |
| 2026-05-07 16:29 | 55.99635 | -3.23511 | 1736 ft | 118 kts | 233° |
| 2026-05-07 16:29 | 55.99212 | -3.24766 | 1566 ft | 117 kts | 234° |
| 2026-05-07 16:29 | 55.98790 | -3.26019 | 1405 ft | 118 kts | 234° |
| 2026-05-07 16:29 | 55.98371 | -3.27264 | 1251 ft | 117 kts | 235° |
| 2026-05-07 16:30 | 55.97954 | -3.28499 | 1092 ft | 116 kts | 234° |
| 2026-05-07 16:30 | 55.97535 | -3.29740 | 936 ft | 117 kts | 236° |
| 2026-05-07 16:30 | 55.97115 | -3.30982 | 760 ft | 117 kts | 234° |
| 2026-05-07 16:30 | 55.96696 | -3.32224 | 616 ft | 117 kts | 235° |
| 2026-05-07 16:31 | 55.96278 | -3.33465 | 454 ft | 117 kts | 237° |
| 2026-05-07 16:31 | 55.95856 | -3.34707 | 289 ft | 117 kts | 237° |
| 2026-05-07 16:31 | 55.95441 | -3.35948 | 143 ft | 115 kts | 237° |
| 2026-05-07 16:31 | 55.95040 | -3.37052 | 113 ft | 86 kts | 239° |
| 2026-05-07 16:32 | 55.94840 | -3.37723 | 114 ft | 36 kts | 243° |
| 2026-05-07 16:32 | 55.94792 | -3.37868 | 115 ft | 2 kts | 237° |
| 2026-05-07 16:32 | 55.94756 | -3.37969 | 115 ft | 14 kts | 238° |
| 2026-05-07 16:32 | 55.94686 | -3.38049 | 114 ft | 12 kts | 167° |
| 2026-05-07 16:33 | 55.94639 | -3.37995 | 116 ft | 7 kts | 140° |
| 2026-05-07 16:33 | 55.94604 | -3.37946 | 115 ft | 5 kts | 145° |
| 2026-05-07 16:33 | 55.94596 | -3.37891 | 115 ft | 6 kts | 79° |
| 2026-05-07 16:33 | 55.94618 | -3.37809 | 114 ft | 9 kts | 58° |
| 2026-05-07 16:34 | 55.94658 | -3.37691 | 113 ft | 13 kts | 60° |
| 2026-05-07 16:34 | 55.94706 | -3.37544 | 115 ft | 14 kts | 59° |
| 2026-05-07 16:34 | 55.94759 | -3.37388 | 114 ft | 15 kts | 59° |
| 2026-05-07 16:34 | 55.94815 | -3.37223 | 114 ft | 17 kts | 58° |
| 2026-05-07 16:35 | 55.94878 | -3.37039 | 113 ft | 17 kts | 58° |
| 2026-05-07 16:35 | 55.94922 | -3.36908 | 114 ft | 9 kts | 63° |
| 2026-05-07 16:35 | 55.94907 | -3.36813 | 116 ft | 9 kts | 142° |
| 2026-05-07 16:35 | 55.94843 | -3.36778 | 116 ft | 10 kts | 178° |
| 2026-05-07 16:36 | 55.94802 | -3.36778 | 116 ft | 6 kts | 179° |
| 2026-05-07 16:36 | 55.94762 | -3.36752 | 114 ft | 4 kts | 151° |
| 2026-05-07 16:36 | 55.94751 | -3.36698 | 116 ft | 5 kts | 95° |
| 2026-05-07 16:36 | 55.94751 | -3.36625 | 116 ft | 6 kts | 89° |
| 2026-05-07 16:37 | 55.94752 | -3.36615 | 116 ft | 0 kts | 89° |